createdAt,value
2023-01-26T00:01:35.529Z,20.37
2023-01-26T00:04:02.739Z,20.33
2023-01-26T00:06:30.497Z,19.80
2023-01-26T00:08:58.355Z,18.80
2023-01-26T00:11:27.835Z,18.70
2023-01-26T00:13:57.390Z,19.40
2023-01-26T00:16:25.855Z,19.27
2023-01-26T00:18:54.226Z,19.23
2023-01-26T00:21:23.059Z,19.03
2023-01-26T00:23:51.011Z,18.97
2023-01-26T00:26:24.130Z,17.67
2023-01-26T00:28:52.696Z,16.80
2023-01-26T00:31:23.328Z,17.57
2023-01-26T00:33:51.816Z,16.97
2023-01-26T00:36:19.092Z,16.40
2023-01-26T00:38:46.411Z,16.53
2023-01-26T00:41:33.517Z,17.43
2023-01-26T00:44:01.852Z,16.60
2023-01-26T00:46:29.188Z,17.63
2023-01-26T00:48:56.733Z,17.17
2023-01-26T00:51:24.306Z,16.50
2023-01-26T00:53:51.904Z,16.87
2023-01-26T00:56:19.302Z,17.47
2023-01-26T00:58:46.856Z,16.50
2023-01-26T01:01:14.173Z,15.93
2023-01-26T01:03:41.215Z,16.07
2023-01-26T01:06:55.210Z,17.90
2023-01-26T01:09:22.865Z,16.17
2023-01-26T01:11:50.504Z,16.47
2023-01-26T01:14:18.090Z,16.33
2023-01-26T01:16:46.904Z,13.50
2023-01-26T01:19:19.693Z,12.13
2023-01-26T01:21:48.173Z,11.20
2023-01-26T01:24:15.252Z,10.03
2023-01-26T01:26:42.845Z,10.40
2023-01-26T01:29:14.416Z,10.30
2023-01-26T01:31:44.104Z,9.77
2023-01-26T01:34:11.187Z,9.57
2023-01-26T01:36:38.454Z,9.80
2023-01-26T01:39:05.529Z,9.97
2023-01-26T01:41:32.507Z,9.60
2023-01-26T01:44:32.207Z,9.67
2023-01-26T01:47:03.812Z,9.77
2023-01-26T01:49:35.659Z,9.63
2023-01-26T01:52:17.730Z,9.77
2023-01-26T01:55:12.628Z,9.87
2023-01-26T01:57:54.164Z,9.37
2023-01-26T02:00:24.045Z,10.13
2023-01-26T02:03:11.949Z,9.60
2023-01-26T02:06:00.879Z,9.27
2023-01-26T02:08:53.065Z,9.43
2023-01-26T02:11:49.024Z,9.10
2023-01-26T02:14:16.628Z,10.90
2023-01-26T02:16:43.664Z,11.00
2023-01-26T02:19:22.731Z,11.10
2023-01-26T02:21:52.568Z,10.50
2023-01-26T02:24:30.370Z,11.33
2023-01-26T02:26:57.908Z,11.10
2023-01-26T02:29:25.285Z,10.67
2023-01-26T02:31:53.887Z,10.67
2023-01-26T02:34:23.419Z,10.70
2023-01-26T02:37:03.138Z,9.43
2023-01-26T02:40:01.824Z,10.63
2023-01-26T02:42:42.369Z,10.70
2023-01-26T02:45:15.865Z,11.30
2023-01-26T02:47:45.223Z,12.30
2023-01-26T02:50:13.949Z,12.10
2023-01-26T02:52:45.467Z,11.00
2023-01-26T07:38:12.162Z,16.53
2023-01-26T07:40:39.330Z,14.07
2023-01-26T07:43:06.345Z,14.53
2023-01-26T07:45:39.159Z,12.93
2023-01-26T07:48:06.168Z,12.60
2023-01-26T07:50:33.407Z,12.37
2023-01-26T07:53:03.593Z,11.77
2023-01-26T07:55:30.889Z,11.40
2023-01-26T07:57:57.979Z,11.50
2023-01-26T08:00:25.074Z,12.07
2023-01-26T08:02:52.669Z,11.70
2023-01-26T08:05:19.683Z,12.10
2023-01-26T08:07:47.080Z,12.67
2023-01-26T08:10:14.722Z,12.17
2023-01-26T08:12:42.016Z,12.70
2023-01-26T08:15:11.006Z,12.10
2023-01-26T08:17:38.813Z,12.33
2023-01-26T08:20:06.217Z,12.90
2023-01-26T08:22:33.808Z,12.00
2023-01-26T08:25:01.796Z,12.30
2023-01-26T08:27:28.953Z,12.17
2023-01-26T08:29:56.623Z,11.20
2023-01-26T08:32:23.908Z,11.00
2023-01-26T08:34:51.019Z,12.00
2023-01-26T08:37:18.226Z,11.80
2023-01-26T08:39:45.218Z,11.23
2023-01-26T08:42:12.213Z,12.43
2023-01-26T08:44:39.199Z,14.33
2023-01-26T08:47:06.355Z,15.43
2023-01-26T08:49:33.333Z,14.20
2023-01-26T08:52:00.462Z,12.60
2023-01-26T08:54:27.600Z,13.77
2023-01-26T08:56:55.899Z,14.07
2023-01-26T08:59:23.064Z,13.87
2023-01-26T09:01:51.344Z,12.20
2023-01-26T09:04:18.473Z,8.53
2023-01-26T09:06:45.710Z,12.77
2023-01-26T09:09:14.676Z,9.00
2023-01-26T09:11:42.068Z,12.57
2023-01-26T09:14:09.628Z,16.87
2023-01-26T09:16:37.241Z,15.73
2023-01-26T09:19:05.430Z,16.07
2023-01-26T09:21:32.813Z,17.57
2023-01-26T09:24:00.072Z,17.17
2023-01-26T09:26:27.339Z,17.53
2023-01-26T09:28:54.648Z,16.87
2023-01-26T09:31:22.313Z,17.50
2023-01-26T09:33:50.956Z,18.33
2023-01-26T09:36:18.554Z,18.83
2023-01-26T09:38:45.922Z,17.60
2023-01-26T09:41:16.592Z,20.60
2023-01-26T09:43:50.648Z,19.87
2023-01-26T09:46:37.913Z,18.90
2023-01-26T09:49:15.692Z,18.17
2023-01-26T09:52:04.749Z,17.40
2023-01-26T09:54:37.380Z,17.90
2023-01-26T09:57:17.568Z,18.97
2023-01-26T09:59:53.965Z,17.37
2023-01-26T10:02:35.100Z,18.00
2023-01-26T10:05:10.890Z,18.47
2023-01-26T10:07:38.028Z,16.80
2023-01-26T10:10:05.469Z,16.47
2023-01-26T10:12:36.820Z,14.77
2023-01-26T10:15:17.480Z,12.83
2023-01-26T10:17:47.757Z,12.67
2023-01-26T10:20:33.814Z,11.23
2023-01-26T10:23:17.396Z,11.17
2023-01-26T10:25:47.275Z,11.13
2023-01-26T10:28:19.769Z,12.30
2023-01-26T10:30:49.235Z,11.83
2023-01-26T10:33:19.748Z,12.10
2023-01-26T10:35:47.847Z,13.93
2023-01-26T10:38:33.442Z,13.47
2023-01-26T10:41:06.634Z,11.90
2023-01-26T10:43:40.871Z,11.93
2023-01-26T10:46:34.613Z,8.10
2023-01-26T10:49:17.050Z,9.13
2023-01-26T10:51:47.215Z,15.03
2023-01-26T10:54:28.666Z,16.37
2023-01-26T10:57:18.158Z,15.83
2023-01-26T11:00:01.509Z,18.23
2023-01-26T11:02:31.162Z,18.17
2023-01-26T11:05:16.207Z,17.87
2023-01-26T11:07:45.449Z,17.63
2023-01-26T11:10:20.477Z,18.23
2023-01-26T11:12:48.658Z,17.47
2023-01-26T11:15:19.449Z,15.70
2023-01-26T11:17:58.140Z,15.07
2023-01-26T11:20:43.357Z,14.60
2023-01-26T11:23:35.714Z,15.00
2023-01-26T11:26:05.494Z,14.20
2023-01-26T11:28:51.048Z,14.40
2023-01-26T11:31:43.024Z,14.50
2023-01-26T11:34:28.105Z,14.00
2023-01-26T11:37:19.647Z,14.50
2023-01-26T11:39:59.743Z,13.37
2023-01-26T11:42:40.815Z,13.10
2023-01-26T11:45:32.549Z,12.30
2023-01-26T11:48:08.276Z,12.80
2023-01-26T11:50:44.346Z,14.23
2023-01-26T11:53:26.675Z,13.20
2023-01-26T11:56:21.861Z,12.87
2023-01-26T11:59:02.959Z,13.03
2023-01-26T12:01:44.448Z,13.37
2023-01-26T12:04:23.053Z,12.73
2023-01-26T12:07:01.645Z,13.07
2023-01-26T12:09:37.162Z,11.33
2023-01-26T12:12:18.687Z,10.60
2023-01-26T12:15:20.233Z,11.87
2023-01-26T12:18:00.981Z,11.57
2023-01-26T12:20:38.795Z,11.83
2023-01-26T12:23:11.040Z,12.83
2023-01-26T12:25:41.244Z,12.37
2023-01-26T12:28:23.489Z,11.90
2023-01-26T12:31:10.287Z,12.23
2023-01-26T12:33:38.875Z,11.73
2023-01-26T12:36:28.328Z,11.03
2023-01-26T12:39:09.178Z,12.30
2023-01-26T12:42:01.007Z,12.83
2023-01-26T12:44:41.723Z,12.17
2023-01-26T12:47:27.569Z,11.87
2023-01-26T12:50:15.909Z,10.40
2023-01-26T12:52:51.773Z,10.43
2023-01-26T12:55:40.805Z,10.97
2023-01-26T12:58:32.889Z,10.60
2023-01-26T13:01:08.989Z,10.60
2023-01-26T13:03:42.516Z,11.10
2023-01-26T13:06:09.751Z,11.67
2023-01-26T13:08:36.708Z,12.13
2023-01-26T13:11:07.039Z,11.47
2023-01-26T13:13:52.064Z,11.10
2023-01-26T13:16:19.313Z,12.23
2023-01-26T13:18:52.494Z,11.27
2023-01-26T13:21:38.592Z,11.77
2023-01-26T13:24:18.111Z,11.90
2023-01-26T13:26:47.260Z,11.63
2023-01-26T13:29:29.526Z,11.83
2023-01-26T13:32:20.597Z,12.00
2023-01-26T13:35:00.641Z,15.27
2023-01-26T13:37:49.865Z,13.77
2023-01-26T13:40:19.950Z,11.33
2023-01-26T13:43:27.845Z,11.40
2023-01-26T13:46:29.847Z,10.13
2023-01-26T13:48:57.889Z,12.10
2023-01-26T13:51:26.693Z,11.73
2023-01-26T13:54:05.922Z,12.50
2023-01-26T13:56:39.186Z,11.50
2023-01-26T13:59:17.739Z,11.37
2023-01-26T14:01:50.218Z,10.53
2023-01-26T14:04:23.010Z,9.10
2023-01-26T14:07:16.731Z,8.90
2023-01-26T14:09:53.038Z,8.77
2023-01-26T14:12:28.497Z,9.03
2023-01-26T14:14:58.904Z,9.53
2023-01-26T14:17:32.569Z,9.93
2023-01-26T14:20:01.127Z,10.17
2023-01-26T14:22:28.524Z,11.10
2023-01-26T14:24:56.113Z,11.30
2023-01-26T14:27:31.583Z,11.33
2023-01-26T14:29:59.442Z,11.47
2023-01-26T14:32:29.874Z,10.77
2023-01-26T14:35:00.039Z,11.57
2023-01-26T14:37:28.771Z,11.43
2023-01-26T14:40:24.848Z,12.27
2023-01-26T14:42:54.749Z,12.37
2023-01-26T14:45:31.799Z,12.30
2023-01-26T14:48:08.792Z,11.97
2023-01-26T14:50:36.886Z,12.63
2023-01-26T14:53:04.947Z,12.17
2023-01-26T14:55:36.757Z,12.17
2023-01-26T14:58:13.495Z,13.00
2023-01-26T15:00:40.602Z,12.43
2023-01-26T15:03:36.767Z,12.93
2023-01-26T15:06:05.214Z,12.17
2023-01-26T15:08:35.228Z,12.53
2023-01-26T15:11:22.988Z,13.37
2023-01-26T15:13:54.187Z,14.03
2023-01-26T15:16:27.489Z,14.63
2023-01-26T15:19:03.974Z,16.10
2023-01-26T15:21:34.662Z,15.93
2023-01-26T15:24:01.821Z,15.63
2023-01-26T15:26:34.557Z,16.27
2023-01-26T15:29:07.276Z,17.67
2023-01-26T15:31:40.338Z,16.53
2023-01-26T15:34:35.019Z,17.80
2023-01-26T15:37:21.693Z,17.03
2023-01-26T15:39:48.945Z,17.60
2023-01-26T15:42:21.689Z,19.17
2023-01-26T15:44:48.962Z,17.87
2023-01-26T15:47:16.244Z,18.30
2023-01-26T15:49:43.478Z,16.17
2023-01-26T15:52:16.087Z,18.57
2023-01-26T15:54:43.729Z,18.23
2023-01-26T15:57:14.038Z,15.80
2023-01-26T15:59:41.379Z,15.70
2023-01-26T16:02:15.630Z,15.33
2023-01-26T16:04:43.739Z,15.73
2023-01-26T16:07:16.409Z,16.20
2023-01-26T16:09:43.870Z,15.87
2023-01-26T16:12:25.940Z,16.07
2023-01-26T16:14:57.852Z,17.03
2023-01-26T16:17:25.136Z,16.87
2023-01-26T16:19:52.328Z,15.93
2023-01-26T16:22:19.728Z,15.37
2023-01-26T16:24:47.378Z,17.07
2023-01-26T16:27:14.594Z,17.67
2023-01-26T16:29:41.927Z,16.37
2023-01-26T16:32:28.776Z,15.60
2023-01-26T16:34:57.282Z,17.23
2023-01-26T16:37:24.554Z,16.47
2023-01-26T16:39:51.568Z,17.23
2023-01-26T16:42:20.289Z,17.20
2023-01-26T16:44:47.970Z,16.83
2023-01-26T16:47:15.270Z,16.93
2023-01-26T16:49:42.286Z,15.70
2023-01-26T16:52:10.175Z,16.67
2023-01-26T16:54:37.777Z,16.93
2023-01-26T16:57:05.203Z,15.70
2023-01-26T16:59:32.541Z,15.47
2023-01-26T17:01:59.892Z,17.20
2023-01-26T17:04:26.933Z,18.87
2023-01-26T17:06:54.267Z,17.77
2023-01-26T17:09:23.742Z,18.60
2023-01-26T17:11:50.858Z,16.90
2023-01-26T17:14:19.283Z,17.10
2023-01-26T17:16:46.717Z,17.37
2023-01-26T17:19:14.046Z,15.13
2023-01-26T17:21:41.099Z,16.23
2023-01-26T17:24:08.766Z,15.77
2023-01-26T17:26:35.768Z,16.47
2023-01-26T17:29:03.488Z,15.83
2023-01-26T17:31:31.906Z,15.90
2023-01-26T17:33:58.929Z,18.20
2023-01-26T17:36:26.390Z,15.60
2023-01-26T17:38:53.910Z,15.60
2023-01-26T17:41:21.130Z,16.97
2023-01-26T17:43:48.153Z,15.50
2023-01-26T17:46:18.249Z,16.07
2023-01-26T17:48:46.471Z,16.03
2023-01-26T17:51:19.330Z,14.20
2023-01-26T17:53:50.129Z,15.30
2023-01-26T17:56:19.441Z,15.27
2023-01-26T17:58:51.853Z,15.07
2023-01-26T18:01:21.045Z,13.53
2023-01-26T18:03:48.098Z,13.87
2023-01-26T18:06:15.263Z,14.77
2023-01-26T18:08:43.565Z,14.47
2023-01-26T18:11:14.259Z,15.67
2023-01-26T18:13:42.125Z,15.80
2023-01-26T18:16:12.841Z,13.27
2023-01-26T18:18:39.933Z,13.17
2023-01-26T18:21:12.172Z,12.97
2023-01-26T18:23:39.249Z,14.47
2023-01-26T18:26:08.329Z,14.57
2023-01-26T18:28:35.529Z,11.47
2023-01-26T18:31:14.688Z,13.80
2023-01-26T18:33:42.565Z,12.60
2023-01-26T18:36:12.209Z,13.60
2023-01-26T18:38:40.722Z,12.43
2023-01-26T18:41:16.121Z,12.50
2023-01-26T18:43:44.669Z,12.07
2023-01-26T18:46:12.107Z,12.03
2023-01-26T18:48:39.300Z,12.03
2023-01-26T18:51:06.737Z,11.93
2023-01-26T18:53:34.918Z,10.23
2023-01-26T18:56:10.746Z,11.90
2023-01-26T18:58:40.366Z,11.50
2023-01-26T19:01:11.238Z,11.87
2023-01-26T19:03:41.791Z,12.07
2023-01-26T19:06:10.211Z,11.70
2023-01-26T19:08:37.569Z,11.27
2023-01-26T19:11:08.693Z,12.90
2023-01-26T19:13:36.651Z,11.83
2023-01-26T19:16:04.162Z,11.70
2023-01-26T19:18:31.234Z,10.70
2023-01-26T19:21:00.661Z,11.13
2023-01-26T19:23:29.378Z,12.10
2023-01-26T19:25:57.579Z,12.87
2023-01-26T19:28:25.290Z,11.70
2023-01-26T19:30:52.511Z,9.90
2023-01-26T19:33:25.891Z,8.63
2023-01-26T19:35:52.928Z,8.27
2023-01-26T19:38:21.128Z,8.33
2023-01-26T19:40:50.050Z,8.47
2023-01-26T19:43:19.628Z,8.03
2023-01-26T19:45:55.033Z,8.57
2023-01-26T19:48:25.591Z,7.60
2023-01-26T19:51:04.669Z,8.37
2023-01-26T19:53:34.281Z,8.43
2023-01-26T19:56:13.611Z,11.43
2023-01-26T19:58:41.160Z,11.03
2023-01-26T20:01:11.178Z,10.40
2023-01-26T20:03:39.353Z,12.43
2023-01-26T20:06:13.723Z,13.13
2023-01-26T20:08:40.934Z,13.30
2023-01-26T20:11:10.032Z,11.27
2023-01-26T20:13:38.096Z,10.13
2023-01-26T20:16:10.449Z,9.30
2023-01-26T20:18:39.851Z,8.83
2023-01-26T20:21:07.851Z,9.13
2023-01-26T20:23:39.684Z,9.37
2023-01-26T20:26:13.332Z,9.03
2023-01-26T20:28:40.927Z,8.80
2023-01-26T20:31:14.475Z,9.73
2023-01-26T20:33:42.396Z,9.80
2023-01-26T20:36:12.788Z,9.90
2023-01-26T20:38:39.954Z,9.20
2023-01-26T20:41:13.385Z,10.80
2023-01-26T20:43:49.500Z,9.63
2023-01-26T20:46:20.719Z,10.10
2023-01-26T20:48:48.492Z,9.90
2023-01-26T20:51:18.487Z,8.20
2023-01-26T20:53:47.941Z,11.00
2023-01-26T20:56:15.777Z,11.57
2023-01-26T20:58:44.498Z,10.30
2023-01-26T21:01:17.562Z,10.73
2023-01-26T21:03:45.073Z,11.37
2023-01-26T21:06:15.594Z,10.87
2023-01-26T21:08:42.719Z,10.80
2023-01-26T21:11:13.886Z,11.10
2023-01-26T21:13:42.055Z,11.67
2023-01-26T21:16:15.287Z,11.20
2023-01-26T21:18:43.259Z,11.70
2023-01-26T21:21:13.892Z,10.77
2023-01-26T21:23:41.525Z,10.03
2023-01-26T21:26:12.169Z,11.93
2023-01-26T21:28:39.655Z,13.63
2023-01-26T21:31:09.276Z,16.23
2023-01-26T21:33:41.849Z,16.67
2023-01-26T21:36:10.878Z,17.50
2023-01-26T21:38:40.984Z,16.60
2023-01-26T21:41:28.809Z,16.47
2023-01-26T21:44:01.056Z,15.83
2023-01-26T21:46:29.927Z,17.97
2023-01-26T21:48:57.131Z,17.27
2023-01-26T21:51:43.567Z,16.13
2023-01-26T21:54:11.513Z,16.27
2023-01-26T21:56:39.877Z,14.93
2023-01-26T21:59:10.249Z,14.93
2023-01-26T22:01:40.165Z,16.23
2023-01-26T22:04:10.085Z,15.90
2023-01-26T22:06:38.187Z,16.47
2023-01-26T22:09:07.007Z,14.67
2023-01-26T22:11:34.680Z,16.20
2023-01-26T22:14:02.926Z,15.10
2023-01-26T22:16:30.014Z,15.87
2023-01-26T22:18:57.434Z,15.63
2023-01-26T22:21:26.536Z,14.73
2023-01-26T22:23:55.559Z,14.97
2023-01-26T22:26:23.889Z,14.87
2023-01-26T22:28:57.010Z,16.13
2023-01-26T22:31:27.268Z,14.50
2023-01-26T22:33:55.657Z,15.20
2023-01-26T22:36:23.807Z,16.40
2023-01-26T22:38:52.013Z,14.90
2023-01-26T22:41:25.247Z,14.90
2023-01-26T22:43:55.965Z,14.10
2023-01-26T22:46:24.718Z,12.40
2023-01-26T22:48:52.927Z,14.40
2023-01-26T22:51:22.706Z,12.87
2023-01-26T22:53:52.493Z,13.77
2023-01-26T22:56:20.469Z,13.80
2023-01-26T22:58:58.106Z,12.53
2023-01-26T23:01:28.646Z,13.37
2023-01-26T23:03:56.865Z,14.17
2023-01-26T23:06:24.992Z,13.23
2023-01-26T23:08:52.495Z,13.63
2023-01-26T23:11:26.226Z,14.23
2023-01-26T23:13:55.125Z,14.27
2023-01-26T23:16:23.904Z,13.33
2023-01-26T23:18:52.199Z,14.07
2023-01-26T23:21:19.722Z,13.70
2023-01-26T23:23:46.699Z,13.50
2023-01-26T23:26:13.894Z,13.70
2023-01-26T23:28:42.652Z,13.83
2023-01-26T23:31:11.681Z,13.47
2023-01-26T23:33:39.667Z,13.43
2023-01-26T23:36:08.749Z,13.13
2023-01-26T23:38:36.375Z,12.97
2023-01-26T23:41:06.047Z,13.80
2023-01-26T23:43:33.892Z,13.97
2023-01-26T23:46:01.049Z,12.93
2023-01-26T23:48:28.489Z,11.43
2023-01-26T23:51:08.931Z,12.43
2023-01-26T23:53:36.523Z,11.87
2023-01-26T23:56:10.532Z,10.60
2023-01-26T23:58:38.211Z,10.80
